sensor_id;sensor_type;location;lat;lon;timestamp;pressure;altitude;pressure_sealevel;temperature;humidity
67803;BME280;54601;51.378;-1.342;2022-12-18T00:02:11;100730.60;;;17.52;23.54
67803;BME280;54601;51.378;-1.342;2022-12-18T00:04:34;100723.29;;;17.58;23.57
67803;BME280;54601;51.378;-1.342;2022-12-18T00:06:59;100712.09;;;17.34;23.60
67803;BME280;54601;51.378;-1.342;2022-12-18T00:09:25;100702.92;;;17.61;23.63
67803;BME280;54601;51.378;-1.342;2022-12-18T00:11:50;100696.13;;;17.57;23.70
67803;BME280;54601;51.378;-1.342;2022-12-18T00:14:15;100691.73;;;17.46;23.89
67803;BME280;54601;51.378;-1.342;2022-12-18T00:16:44;100688.84;;;17.48;23.87
67803;BME280;54601;51.378;-1.342;2022-12-18T00:19:06;100685.44;;;17.75;23.90
67803;BME280;54601;51.378;-1.342;2022-12-18T00:21:33;100685.70;;;17.51;23.94
67803;BME280;54601;51.378;-1.342;2022-12-18T00:23:57;100686.16;;;17.40;24.07
67803;BME280;54601;51.378;-1.342;2022-12-18T00:26:23;100686.46;;;17.13;24.11
67803;BME280;54601;51.378;-1.342;2022-12-18T00:28:47;100683.87;;;17.26;23.93
67803;BME280;54601;51.378;-1.342;2022-12-18T00:31:14;100683.77;;;17.49;23.98
67803;BME280;54601;51.378;-1.342;2022-12-18T00:33:38;100678.32;;;17.52;23.95
67803;BME280;54601;51.378;-1.342;2022-12-18T00:36:04;100675.01;;;17.46;23.95
67803;BME280;54601;51.378;-1.342;2022-12-18T00:38:28;100664.22;;;17.56;23.92
67803;BME280;54601;51.378;-1.342;2022-12-18T00:40:53;100660.77;;;17.33;24.01
67803;BME280;54601;51.378;-1.342;2022-12-18T00:43:19;100658.79;;;17.14;23.96
67803;BME280;54601;51.378;-1.342;2022-12-18T00:45:44;100656.26;;;17.41;23.89
67803;BME280;54601;51.378;-1.342;2022-12-18T00:48:09;100653.81;;;17.35;23.91
67803;BME280;54601;51.378;-1.342;2022-12-18T00:50:34;100648.21;;;17.47;23.77
67803;BME280;54601;51.378;-1.342;2022-12-18T00:53:00;100643.99;;;17.38;23.84
67803;BME280;54601;51.378;-1.342;2022-12-18T00:55:25;100639.14;;;17.34;23.82
67803;BME280;54601;51.378;-1.342;2022-12-18T00:57:51;100641.73;;;17.61;23.73
67803;BME280;54601;51.378;-1.342;2022-12-18T01:00:16;100640.42;;;17.18;23.93
67803;BME280;54601;51.378;-1.342;2022-12-18T01:02:41;100640.30;;;17.30;23.73
67803;BME280;54601;51.378;-1.342;2022-12-18T01:05:07;100642.85;;;17.57;23.65
67803;BME280;54601;51.378;-1.342;2022-12-18T01:07:31;100648.21;;;17.22;23.71
67803;BME280;54601;51.378;-1.342;2022-12-18T01:09:56;100645.86;;;17.39;23.75
67803;BME280;54601;51.378;-1.342;2022-12-18T01:12:22;100633.56;;;17.38;23.73
67803;BME280;54601;51.378;-1.342;2022-12-18T01:14:47;100621.20;;;17.12;23.72
67803;BME280;54601;51.378;-1.342;2022-12-18T01:17:12;100620.93;;;17.54;23.72
67803;BME280;54601;51.378;-1.342;2022-12-18T01:19:38;100623.96;;;17.25;23.76
67803;BME280;54601;51.378;-1.342;2022-12-18T01:22:03;100626.69;;;17.25;23.75
67803;BME280;54601;51.378;-1.342;2022-12-18T01:24:28;100628.74;;;17.44;23.72
67803;BME280;54601;51.378;-1.342;2022-12-18T01:26:53;100628.03;;;17.01;23.66
67803;BME280;54601;51.378;-1.342;2022-12-18T01:29:19;100623.87;;;17.05;23.63
67803;BME280;54601;51.378;-1.342;2022-12-18T01:31:44;100619.01;;;16.93;23.64
67803;BME280;54601;51.378;-1.342;2022-12-18T01:34:09;100623.44;;;16.92;23.62
67803;BME280;54601;51.378;-1.342;2022-12-18T01:36:37;100623.05;;;17.40;23.55
67803;BME280;54601;51.378;-1.342;2022-12-18T01:39:01;100620.13;;;16.91;23.51
67803;BME280;54601;51.378;-1.342;2022-12-18T01:41:27;100620.15;;;16.79;23.62
67803;BME280;54601;51.378;-1.342;2022-12-18T01:43:52;100616.78;;;16.97;23.63
67803;BME280;54601;51.378;-1.342;2022-12-18T01:46:17;100624.07;;;17.10;23.63
67803;BME280;54601;51.378;-1.342;2022-12-18T01:48:42;100622.80;;;16.95;23.58
67803;BME280;54601;51.378;-1.342;2022-12-18T01:51:09;100631.40;;;16.67;23.56
67803;BME280;54601;51.378;-1.342;2022-12-18T01:53:32;100628.63;;;16.87;23.58
67803;BME280;54601;51.378;-1.342;2022-12-18T01:55:58;100632.79;;;16.89;23.48
67803;BME280;54601;51.378;-1.342;2022-12-18T01:58:27;100633.40;;;16.80;23.59
67803;BME280;54601;51.378;-1.342;2022-12-18T02:00:48;100639.77;;;16.75;23.66
67803;BME280;54601;51.378;-1.342;2022-12-18T02:03:13;100639.80;;;16.67;23.57
67803;BME280;54601;51.378;-1.342;2022-12-18T02:05:45;100637.67;;;16.82;23.69
67803;BME280;54601;51.378;-1.342;2022-12-18T02:08:10;100640.04;;;16.91;23.50
67803;BME280;54601;51.378;-1.342;2022-12-18T02:10:31;100641.01;;;16.55;23.64
67803;BME280;54601;51.378;-1.342;2022-12-18T02:13:01;100641.14;;;16.54;23.61
67803;BME280;54601;51.378;-1.342;2022-12-18T02:15:25;100638.55;;;16.76;23.59
67803;BME280;54601;51.378;-1.342;2022-12-18T02:17:50;100638.08;;;16.73;23.57
67803;BME280;54601;51.378;-1.342;2022-12-18T02:20:14;100642.74;;;16.46;23.62
67803;BME280;54601;51.378;-1.342;2022-12-18T02:22:43;100647.49;;;16.68;23.55
67803;BME280;54601;51.378;-1.342;2022-12-18T02:25:13;100642.36;;;16.91;23.57
67803;BME280;54601;51.378;-1.342;2022-12-18T02:27:27;100630.05;;;16.40;23.61
67803;BME280;54601;51.378;-1.342;2022-12-18T02:29:54;100632.22;;;16.59;23.59
67803;BME280;54601;51.378;-1.342;2022-12-18T02:32:21;100630.86;;;16.58;23.61
67803;BME280;54601;51.378;-1.342;2022-12-18T02:34:43;100624.04;;;16.62;23.53
67803;BME280;54601;51.378;-1.342;2022-12-18T02:37:11;100627.59;;;16.45;23.67
67803;BME280;54601;51.378;-1.342;2022-12-18T02:39:36;100623.35;;;16.33;23.55
67803;BME280;54601;51.378;-1.342;2022-12-18T02:41:59;100614.61;;;16.55;23.54
67803;BME280;54601;51.378;-1.342;2022-12-18T02:44:24;100604.91;;;16.28;23.55
67803;BME280;54601;51.378;-1.342;2022-12-18T02:46:51;100604.04;;;16.56;23.49
67803;BME280;54601;51.378;-1.342;2022-12-18T02:49:26;100597.81;;;16.60;23.43
67803;BME280;54601;51.378;-1.342;2022-12-18T02:51:47;100591.25;;;16.80;23.47
67803;BME280;54601;51.378;-1.342;2022-12-18T02:54:10;100590.69;;;16.45;23.56
67803;BME280;54601;51.378;-1.342;2022-12-18T02:56:35;100593.40;;;16.39;23.58
67803;BME280;54601;51.378;-1.342;2022-12-18T02:58:58;100598.65;;;16.46;23.51
67803;BME280;54601;51.378;-1.342;2022-12-18T03:01:26;100596.71;;;16.42;23.50
67803;BME280;54601;51.378;-1.342;2022-12-18T03:03:49;100602.18;;;16.37;23.52
67803;BME280;54601;51.378;-1.342;2022-12-18T03:06:17;100604.65;;;16.32;23.59
67803;BME280;54601;51.378;-1.342;2022-12-18T03:08:41;100600.48;;;16.37;23.53
67803;BME280;54601;51.378;-1.342;2022-12-18T03:11:05;100596.07;;;16.31;23.58
67803;BME280;54601;51.378;-1.342;2022-12-18T03:13:32;100599.64;;;16.25;23.54
67803;BME280;54601;51.378;-1.342;2022-12-18T03:15:55;100595.56;;;16.26;23.53
67803;BME280;54601;51.378;-1.342;2022-12-18T03:18:21;100592.40;;;16.29;23.47
67803;BME280;54601;51.378;-1.342;2022-12-18T03:20:46;100589.90;;;16.15;23.61
67803;BME280;54601;51.378;-1.342;2022-12-18T03:23:12;100585.93;;;16.22;23.52
67803;BME280;54601;51.378;-1.342;2022-12-18T03:25:38;100582.67;;;16.26;23.43
67803;BME280;54601;51.378;-1.342;2022-12-18T03:28:01;100586.12;;;16.51;23.46
67803;BME280;54601;51.378;-1.342;2022-12-18T03:30:26;100592.84;;;16.27;23.37
67803;BME280;54601;51.378;-1.342;2022-12-18T03:32:53;100594.50;;;16.21;23.43
67803;BME280;54601;51.378;-1.342;2022-12-18T03:35:20;100592.51;;;16.42;23.50
67803;BME280;54601;51.378;-1.342;2022-12-18T03:37:41;100591.81;;;16.09;23.50
67803;BME280;54601;51.378;-1.342;2022-12-18T03:40:07;100585.23;;;16.12;23.55
67803;BME280;54601;51.378;-1.342;2022-12-18T03:42:37;100583.09;;;16.02;23.54
67803;BME280;54601;51.378;-1.342;2022-12-18T03:45:02;100579.81;;;16.11;23.50
67803;BME280;54601;51.378;-1.342;2022-12-18T03:47:26;100580.00;;;16.12;23.51
67803;BME280;54601;51.378;-1.342;2022-12-18T03:49:53;100575.98;;;16.43;23.41
67803;BME280;54601;51.378;-1.342;2022-12-18T03:52:17;100568.88;;;15.91;23.45
67803;BME280;54601;51.378;-1.342;2022-12-18T03:54:39;100571.04;;;16.10;23.45
67803;BME280;54601;51.378;-1.342;2022-12-18T03:57:07;100566.44;;;16.35;23.46
67803;BME280;54601;51.378;-1.342;2022-12-18T03:59:29;100568.42;;;16.06;23.46
67803;BME280;54601;51.378;-1.342;2022-12-18T04:01:54;100566.22;;;16.34;23.45
67803;BME280;54601;51.378;-1.342;2022-12-18T04:04:20;100562.78;;;16.37;23.40
67803;BME280;54601;51.378;-1.342;2022-12-18T04:06:45;100563.26;;;16.26;23.49
67803;BME280;54601;51.378;-1.342;2022-12-18T04:09:10;100560.58;;;16.02;23.46
67803;BME280;54601;51.378;-1.342;2022-12-18T04:11:35;100557.48;;;16.25;23.48
67803;BME280;54601;51.378;-1.342;2022-12-18T04:14:00;100553.85;;;16.00;23.43
67803;BME280;54601;51.378;-1.342;2022-12-18T04:16:25;100546.77;;;15.92;23.51
67803;BME280;54601;51.378;-1.342;2022-12-18T04:18:51;100545.17;;;16.19;23.53
67803;BME280;54601;51.378;-1.342;2022-12-18T04:21:16;100541.51;;;15.97;23.49
67803;BME280;54601;51.378;-1.342;2022-12-18T04:23:41;100538.50;;;16.30;23.46
67803;BME280;54601;51.378;-1.342;2022-12-18T04:26:06;100530.88;;;16.34;23.43
67803;BME280;54601;51.378;-1.342;2022-12-18T04:28:32;100516.41;;;16.21;23.47
67803;BME280;54601;51.378;-1.342;2022-12-18T04:30:57;100508.55;;;16.19;23.54
67803;BME280;54601;51.378;-1.342;2022-12-18T04:33:22;100501.30;;;15.84;23.56
67803;BME280;54601;51.378;-1.342;2022-12-18T04:35:48;100497.33;;;15.91;23.50
67803;BME280;54601;51.378;-1.342;2022-12-18T04:38:13;100482.31;;;16.18;23.53
67803;BME280;54601;51.378;-1.342;2022-12-18T04:40:38;100483.59;;;16.09;23.58
67803;BME280;54601;51.378;-1.342;2022-12-18T04:43:04;100482.18;;;15.90;23.48
67803;BME280;54601;51.378;-1.342;2022-12-18T04:45:30;100474.22;;;16.16;23.54
67803;BME280;54601;51.378;-1.342;2022-12-18T04:47:54;100466.90;;;16.20;23.51
67803;BME280;54601;51.378;-1.342;2022-12-18T04:50:19;100454.21;;;16.17;23.50
67803;BME280;54601;51.378;-1.342;2022-12-18T04:52:45;100454.95;;;16.18;23.51
67803;BME280;54601;51.378;-1.342;2022-12-18T04:55:10;100453.39;;;15.99;23.47
67803;BME280;54601;51.378;-1.342;2022-12-18T04:57:35;100448.42;;;16.51;23.49
67803;BME280;54601;51.378;-1.342;2022-12-18T05:00:02;100449.11;;;16.09;23.39
67803;BME280;54601;51.378;-1.342;2022-12-18T05:02:26;100449.16;;;15.83;23.41
67803;BME280;54601;51.378;-1.342;2022-12-18T05:04:51;100443.07;;;16.51;23.55
67803;BME280;54601;51.378;-1.342;2022-12-18T05:07:17;100437.97;;;16.10;23.45
67803;BME280;54601;51.378;-1.342;2022-12-18T05:09:42;100435.31;;;16.11;23.44
67803;BME280;54601;51.378;-1.342;2022-12-18T05:12:07;100428.49;;;16.40;23.43
67803;BME280;54601;51.378;-1.342;2022-12-18T05:14:33;100426.61;;;16.05;23.49
67803;BME280;54601;51.378;-1.342;2022-12-18T05:16:58;100431.03;;;16.01;23.57
67803;BME280;54601;51.378;-1.342;2022-12-18T05:19:23;100433.25;;;16.55;23.53
67803;BME280;54601;51.378;-1.342;2022-12-18T05:21:49;100436.33;;;16.26;23.60
67803;BME280;54601;51.378;-1.342;2022-12-18T05:24:14;100436.40;;;16.28;23.64
67803;BME280;54601;51.378;-1.342;2022-12-18T05:26:39;100435.55;;;15.96;23.67
67803;BME280;54601;51.378;-1.342;2022-12-18T05:29:04;100431.44;;;16.14;23.80
67803;BME280;54601;51.378;-1.342;2022-12-18T05:31:30;100422.56;;;16.12;23.82
67803;BME280;54601;51.378;-1.342;2022-12-18T05:33:55;100415.67;;;16.24;23.77
67803;BME280;54601;51.378;-1.342;2022-12-18T05:36:20;100417.94;;;16.20;23.83
67803;BME280;54601;51.378;-1.342;2022-12-18T05:38:46;100419.07;;;16.35;23.72
67803;BME280;54601;51.378;-1.342;2022-12-18T05:41:11;100414.58;;;16.29;23.75
67803;BME280;54601;51.378;-1.342;2022-12-18T05:43:38;100404.74;;;16.09;23.71
67803;BME280;54601;51.378;-1.342;2022-12-18T05:46:04;100393.47;;;16.13;23.68
67803;BME280;54601;51.378;-1.342;2022-12-18T05:48:27;100390.78;;;16.22;23.62
67803;BME280;54601;51.378;-1.342;2022-12-18T05:50:52;100385.88;;;16.46;23.64
67803;BME280;54601;51.378;-1.342;2022-12-18T05:53:19;100380.92;;;16.04;23.73
67803;BME280;54601;51.378;-1.342;2022-12-18T05:55:43;100376.53;;;16.34;23.73
67803;BME280;54601;51.378;-1.342;2022-12-18T05:58:09;100368.22;;;16.07;23.76
67803;BME280;54601;51.378;-1.342;2022-12-18T06:00:35;100367.36;;;16.41;23.68
67803;BME280;54601;51.378;-1.342;2022-12-18T06:02:58;100367.95;;;16.50;23.61
67803;BME280;54601;51.378;-1.342;2022-12-18T06:05:24;100365.51;;;16.76;23.51
67803;BME280;54601;51.378;-1.342;2022-12-18T06:07:49;100358.50;;;16.42;23.62
67803;BME280;54601;51.378;-1.342;2022-12-18T06:10:14;100352.55;;;16.31;23.54
67803;BME280;54601;51.378;-1.342;2022-12-18T06:12:39;100347.10;;;16.55;23.56
67803;BME280;54601;51.378;-1.342;2022-12-18T06:15:06;100345.77;;;16.19;23.60
67803;BME280;54601;51.378;-1.342;2022-12-18T06:17:30;100339.25;;;16.27;23.77
67803;BME280;54601;51.378;-1.342;2022-12-18T06:19:55;100332.73;;;16.45;23.61
67803;BME280;54601;51.378;-1.342;2022-12-18T06:22:21;100327.21;;;16.56;23.54
67803;BME280;54601;51.378;-1.342;2022-12-18T06:24:46;100328.73;;;16.31;23.55
67803;BME280;54601;51.378;-1.342;2022-12-18T06:27:11;100341.72;;;16.36;23.45
67803;BME280;54601;51.378;-1.342;2022-12-18T06:29:36;100340.37;;;16.37;23.50
67803;BME280;54601;51.378;-1.342;2022-12-18T06:32:02;100331.85;;;16.46;23.65
67803;BME280;54601;51.378;-1.342;2022-12-18T06:34:27;100320.29;;;16.20;23.67
67803;BME280;54601;51.378;-1.342;2022-12-18T06:36:52;100320.64;;;16.28;23.58
67803;BME280;54601;51.378;-1.342;2022-12-18T06:39:18;100323.31;;;16.61;23.55
67803;BME280;54601;51.378;-1.342;2022-12-18T06:41:43;100316.68;;;16.64;23.52
67803;BME280;54601;51.378;-1.342;2022-12-18T06:44:08;100314.90;;;16.33;23.54
67803;BME280;54601;51.378;-1.342;2022-12-18T06:46:34;100313.19;;;16.35;23.54
67803;BME280;54601;51.378;-1.342;2022-12-18T06:48:59;100316.01;;;16.65;23.51
67803;BME280;54601;51.378;-1.342;2022-12-18T06:51:25;100315.54;;;16.67;23.51
67803;BME280;54601;51.378;-1.342;2022-12-18T06:53:50;100311.41;;;15.47;23.12
67803;BME280;54601;51.378;-1.342;2022-12-18T06:56:15;100315.08;;;17.09;22.89
67803;BME280;54601;51.378;-1.342;2022-12-18T06:58:41;100315.45;;;16.67;23.26
67803;BME280;54601;51.378;-1.342;2022-12-18T07:01:08;100313.99;;;16.59;23.33
67803;BME280;54601;51.378;-1.342;2022-12-18T07:03:31;100312.78;;;16.78;23.43
67803;BME280;54601;51.378;-1.342;2022-12-18T07:05:56;100312.80;;;16.37;23.54
67803;BME280;54601;51.378;-1.342;2022-12-18T07:08:22;100315.56;;;16.29;23.59
67803;BME280;54601;51.378;-1.342;2022-12-18T07:10:47;100309.63;;;16.18;23.71
67803;BME280;54601;51.378;-1.342;2022-12-18T07:13:12;100308.60;;;16.51;23.72
67803;BME280;54601;51.378;-1.342;2022-12-18T07:15:38;100305.62;;;16.42;23.92
67803;BME280;54601;51.378;-1.342;2022-12-18T07:18:03;100301.46;;;16.48;24.10
67803;BME280;54601;51.378;-1.342;2022-12-18T07:20:28;100292.19;;;16.59;24.33
67803;BME280;54601;51.378;-1.342;2022-12-18T07:22:54;100289.80;;;16.34;24.21
67803;BME280;54601;51.378;-1.342;2022-12-18T07:25:19;100292.43;;;16.43;24.04
67803;BME280;54601;51.378;-1.342;2022-12-18T07:27:44;100295.71;;;16.46;24.12
67803;BME280;54601;51.378;-1.342;2022-12-18T07:30:10;100290.62;;;16.83;24.06
67803;BME280;54601;51.378;-1.342;2022-12-18T07:32:35;100282.75;;;16.51;24.09
67803;BME280;54601;51.378;-1.342;2022-12-18T07:35:00;100275.49;;;16.57;24.05
67803;BME280;54601;51.378;-1.342;2022-12-18T07:37:26;100273.95;;;16.35;24.36
67803;BME280;54601;51.378;-1.342;2022-12-18T07:39:51;100272.39;;;16.40;24.23
67803;BME280;54601;51.378;-1.342;2022-12-18T07:42:16;100274.33;;;16.41;24.29
67803;BME280;54601;51.378;-1.342;2022-12-18T07:44:42;100261.65;;;16.43;24.25
67803;BME280;54601;51.378;-1.342;2022-12-18T07:47:07;100266.48;;;16.44;24.34
67803;BME280;54601;51.378;-1.342;2022-12-18T07:49:32;100273.67;;;16.66;24.46
67803;BME280;54601;51.378;-1.342;2022-12-18T07:51:58;100272.90;;;16.41;24.50
67803;BME280;54601;51.378;-1.342;2022-12-18T07:54:23;100275.27;;;16.45;24.45
67803;BME280;54601;51.378;-1.342;2022-12-18T07:56:48;100277.80;;;16.47;24.56
67803;BME280;54601;51.378;-1.342;2022-12-18T07:59:14;100279.73;;;16.44;24.52
67803;BME280;54601;51.378;-1.342;2022-12-18T08:01:39;100280.79;;;16.52;24.45
67803;BME280;54601;51.378;-1.342;2022-12-18T08:04:04;100294.42;;;16.49;24.50
67803;BME280;54601;51.378;-1.342;2022-12-18T08:06:29;100295.74;;;16.42;24.69
67803;BME280;54601;51.378;-1.342;2022-12-18T08:08:56;100301.92;;;16.46;24.72
67803;BME280;54601;51.378;-1.342;2022-12-18T08:11:21;100305.88;;;16.52;24.71
67803;BME280;54601;51.378;-1.342;2022-12-18T08:13:45;100304.61;;;16.28;24.68
67803;BME280;54601;51.378;-1.342;2022-12-18T08:16:11;100306.83;;;16.77;24.61
67803;BME280;54601;51.378;-1.342;2022-12-18T08:18:37;100303.97;;;16.48;24.68
67803;BME280;54601;51.378;-1.342;2022-12-18T08:21:08;100300.47;;;16.48;24.76
67803;BME280;54601;51.378;-1.342;2022-12-18T08:23:27;100292.34;;;16.61;24.58
67803;BME280;54601;51.378;-1.342;2022-12-18T08:25:52;100289.00;;;16.60;24.59
67803;BME280;54601;51.378;-1.342;2022-12-18T08:28:17;100297.41;;;16.60;24.61
67803;BME280;54601;51.378;-1.342;2022-12-18T08:30:43;100296.19;;;16.35;24.59
67803;BME280;54601;51.378;-1.342;2022-12-18T08:33:08;100290.33;;;16.59;24.67
67803;BME280;54601;51.378;-1.342;2022-12-18T08:35:35;100296.32;;;16.67;24.60
67803;BME280;54601;51.378;-1.342;2022-12-18T08:37:59;100298.25;;;16.62;24.73
67803;BME280;54601;51.378;-1.342;2022-12-18T08:40:24;100295.52;;;16.41;24.68
67803;BME280;54601;51.378;-1.342;2022-12-18T08:42:49;100295.24;;;16.65;24.66
67803;BME280;54601;51.378;-1.342;2022-12-18T08:45:15;100292.67;;;16.44;24.71
67803;BME280;54601;51.378;-1.342;2022-12-18T08:47:40;100295.19;;;16.41;24.78
67803;BME280;54601;51.378;-1.342;2022-12-18T08:50:06;100300.67;;;16.68;24.62
67803;BME280;54601;51.378;-1.342;2022-12-18T08:52:32;100308.60;;;16.68;24.62
67803;BME280;54601;51.378;-1.342;2022-12-18T08:54:56;100318.37;;;16.77;24.59
67803;BME280;54601;51.378;-1.342;2022-12-18T08:57:22;100322.23;;;16.61;24.69
67803;BME280;54601;51.378;-1.342;2022-12-18T08:59:47;100322.92;;;16.75;24.62
67803;BME280;54601;51.378;-1.342;2022-12-18T09:02:12;100328.59;;;16.77;24.58
67803;BME280;54601;51.378;-1.342;2022-12-18T09:04:37;100327.31;;;16.76;24.60
67803;BME280;54601;51.378;-1.342;2022-12-18T09:07:02;100324.74;;;16.74;24.70
67803;BME280;54601;51.378;-1.342;2022-12-18T09:09:28;100323.87;;;16.81;24.56
67803;BME280;54601;51.378;-1.342;2022-12-18T09:11:53;100312.33;;;16.67;24.45
67803;BME280;54601;51.378;-1.342;2022-12-18T09:14:19;100294.56;;;16.94;24.45
67803;BME280;54601;51.378;-1.342;2022-12-18T09:16:44;100293.52;;;16.92;24.41
67803;BME280;54601;51.378;-1.342;2022-12-18T09:19:09;100291.90;;;16.91;24.60
67803;BME280;54601;51.378;-1.342;2022-12-18T09:21:35;100294.45;;;16.86;24.55
67803;BME280;54601;51.378;-1.342;2022-12-18T09:24:00;100298.50;;;16.82;24.67
67803;BME280;54601;51.378;-1.342;2022-12-18T09:26:26;100296.78;;;16.90;24.56
67803;BME280;54601;51.378;-1.342;2022-12-18T09:28:51;100293.30;;;16.87;24.65
67803;BME280;54601;51.378;-1.342;2022-12-18T09:31:17;100297.67;;;16.75;24.51
67803;BME280;54601;51.378;-1.342;2022-12-18T09:33:41;100292.89;;;16.78;24.54
67803;BME280;54601;51.378;-1.342;2022-12-18T09:36:09;100285.16;;;17.02;24.58
67803;BME280;54601;51.378;-1.342;2022-12-18T09:38:33;100281.82;;;16.97;24.60
67803;BME280;54601;51.378;-1.342;2022-12-18T09:41:00;100278.68;;;16.74;24.56
67803;BME280;54601;51.378;-1.342;2022-12-18T09:43:26;100278.76;;;17.01;24.51
67803;BME280;54601;51.378;-1.342;2022-12-18T09:45:51;100267.97;;;17.14;24.42
67803;BME280;54601;51.378;-1.342;2022-12-18T09:48:18;100265.73;;;16.79;24.55
67803;BME280;54601;51.378;-1.342;2022-12-18T09:50:39;100258.53;;;16.88;24.47
67803;BME280;54601;51.378;-1.342;2022-12-18T09:53:07;100252.85;;;16.71;24.39
67803;BME280;54601;51.378;-1.342;2022-12-18T09:55:32;100246.65;;;16.85;24.50
67803;BME280;54601;51.378;-1.342;2022-12-18T09:58:00;100250.81;;;16.86;24.51
67803;BME280;54601;51.378;-1.342;2022-12-18T10:00:22;100244.16;;;17.16;24.43
67803;BME280;54601;51.378;-1.342;2022-12-18T10:02:45;100235.17;;;16.95;24.40
67803;BME280;54601;51.378;-1.342;2022-12-18T10:05:13;100223.79;;;16.89;24.45
67803;BME280;54601;51.378;-1.342;2022-12-18T10:07:47;100213.92;;;16.97;24.34
67803;BME280;54601;51.378;-1.342;2022-12-18T10:10:05;100219.96;;;17.13;24.43
67803;BME280;54601;51.378;-1.342;2022-12-18T10:12:30;100212.66;;;16.82;24.48
67803;BME280;54601;51.378;-1.342;2022-12-18T10:14:56;100215.57;;;17.07;24.50
67803;BME280;54601;51.378;-1.342;2022-12-18T10:17:24;100219.44;;;16.95;24.42
67803;BME280;54601;51.378;-1.342;2022-12-18T10:19:46;100219.45;;;17.10;24.48
67803;BME280;54601;51.378;-1.342;2022-12-18T10:22:19;100220.45;;;16.78;24.59
67803;BME280;54601;51.378;-1.342;2022-12-18T10:24:37;100210.53;;;16.79;24.74
67803;BME280;54601;51.378;-1.342;2022-12-18T10:27:08;100209.50;;;16.84;24.66
67803;BME280;54601;51.378;-1.342;2022-12-18T10:29:25;100219.81;;;16.66;24.70
67803;BME280;54601;51.378;-1.342;2022-12-18T10:31:49;100223.30;;;16.91;24.60
67803;BME280;54601;51.378;-1.342;2022-12-18T10:34:14;100225.67;;;16.85;24.60
67803;BME280;54601;51.378;-1.342;2022-12-18T10:36:39;100222.89;;;16.37;24.64
67803;BME280;54601;51.378;-1.342;2022-12-18T10:39:14;100223.26;;;16.56;24.67
67803;BME280;54601;51.378;-1.342;2022-12-18T10:41:30;100209.75;;;16.54;24.71
67803;BME280;54601;51.378;-1.342;2022-12-18T10:46:21;100184.08;;;16.70;24.75
67803;BME280;54601;51.378;-1.342;2022-12-18T10:48:51;100178.80;;;16.71;24.70
67803;BME280;54601;51.378;-1.342;2022-12-18T10:51:20;100178.07;;;16.63;24.85
67803;BME280;54601;51.378;-1.342;2022-12-18T10:53:37;100178.18;;;16.58;24.88
67803;BME280;54601;51.378;-1.342;2022-12-18T10:56:04;100183.95;;;16.66;24.83
67803;BME280;54601;51.378;-1.342;2022-12-18T10:58:29;100180.49;;;16.68;24.72
67803;BME280;54601;51.378;-1.342;2022-12-18T11:01:02;100173.03;;;16.67;24.71
67803;BME280;54601;51.378;-1.342;2022-12-18T11:03:29;100168.11;;;16.72;24.63
67803;BME280;54601;51.378;-1.342;2022-12-18T11:05:43;100166.07;;;16.48;24.60
67803;BME280;54601;51.378;-1.342;2022-12-18T11:08:19;100155.43;;;16.43;24.64
67803;BME280;54601;51.378;-1.342;2022-12-18T11:10:37;100151.45;;;16.61;24.68
67803;BME280;54601;51.378;-1.342;2022-12-18T11:15:27;100134.73;;;16.59;24.65
67803;BME280;54601;51.378;-1.342;2022-12-18T11:17:51;100128.57;;;16.39;24.85
67803;BME280;54601;51.378;-1.342;2022-12-18T11:20:26;100119.58;;;16.73;24.79
67803;BME280;54601;51.378;-1.342;2022-12-18T11:22:41;100108.14;;;16.50;24.71
67803;BME280;54601;51.378;-1.342;2022-12-18T11:27:32;100087.36;;;16.54;24.65
67803;BME280;54601;51.378;-1.342;2022-12-18T11:32:30;100080.32;;;16.54;24.67
67803;BME280;54601;51.378;-1.342;2022-12-18T11:34:51;100077.52;;;16.42;24.76
67803;BME280;54601;51.378;-1.342;2022-12-18T11:37:13;100081.05;;;16.35;24.85
67803;BME280;54601;51.378;-1.342;2022-12-18T11:39:42;100072.51;;;16.28;24.90
67803;BME280;54601;51.378;-1.342;2022-12-18T11:42:10;100062.78;;;16.58;24.88
67803;BME280;54601;51.378;-1.342;2022-12-18T11:44:34;100052.76;;;16.25;24.91
67803;BME280;54601;51.378;-1.342;2022-12-18T11:47:00;100041.10;;;16.54;24.90
67803;BME280;54601;51.378;-1.342;2022-12-18T11:49:22;100038.09;;;16.24;24.91
67803;BME280;54601;51.378;-1.342;2022-12-18T11:51:50;100028.47;;;16.30;24.91
67803;BME280;54601;51.378;-1.342;2022-12-18T11:54:13;100023.69;;;16.37;24.79
67803;BME280;54601;51.378;-1.342;2022-12-18T11:56:37;100021.78;;;16.28;24.89
67803;BME280;54601;51.378;-1.342;2022-12-18T11:59:08;100019.22;;;16.18;25.04
67803;BME280;54601;51.378;-1.342;2022-12-18T12:01:36;100009.38;;;16.27;24.93
67803;BME280;54601;51.378;-1.342;2022-12-18T12:04:06;100007.82;;;16.16;25.04
67803;BME280;54601;51.378;-1.342;2022-12-18T12:06:23;99996.05;;;16.43;25.06
67803;BME280;54601;51.378;-1.342;2022-12-18T12:08:54;99986.75;;;16.22;25.00
67803;BME280;54601;51.378;-1.342;2022-12-18T12:11:14;99988.79;;;16.19;25.03
67803;BME280;54601;51.378;-1.342;2022-12-18T12:13:43;99984.85;;;16.18;25.05
67803;BME280;54601;51.378;-1.342;2022-12-18T12:16:08;99981.37;;;16.39;25.14
67803;BME280;54601;51.378;-1.342;2022-12-18T12:18:31;99974.03;;;16.17;25.09
67803;BME280;54601;51.378;-1.342;2022-12-18T12:20:54;99972.50;;;16.50;25.03
67803;BME280;54601;51.378;-1.342;2022-12-18T12:23:22;99966.53;;;16.14;25.14
67803;BME280;54601;51.378;-1.342;2022-12-18T12:25:44;99962.67;;;16.16;25.10
67803;BME280;54601;51.378;-1.342;2022-12-18T12:28:15;99954.73;;;16.48;25.03
67803;BME280;54601;51.378;-1.342;2022-12-18T12:30:38;99948.21;;;16.14;25.14
67803;BME280;54601;51.378;-1.342;2022-12-18T12:33:07;99942.53;;;16.40;25.17
67803;BME280;54601;51.378;-1.342;2022-12-18T12:35:30;99933.64;;;16.02;25.27
67803;BME280;54601;51.378;-1.342;2022-12-18T12:37:54;99927.70;;;16.02;25.29
67803;BME280;54601;51.378;-1.342;2022-12-18T12:40:18;99924.05;;;16.41;25.21